Time;durP1;ratioP1;P1;durP2;ratioP2;P2;SDS_P1;SDS_P2;PMS_P1;PMS_P2;Temp;Humidity;BMP_temperature;BMP_pressure;BME280_temperature;BME280_humidity;BME280_pressure;Samples;Min_cycle;Max_cycle;Signal;HPM_P1;HPM_P2
2021/07/28 00:02:06;;;;;;;6.38;4.00;;;20.70;92.30;;;;;;5014524;28;20050;-83
2021/07/28 00:04:33;;;;;;;7.93;4.43;;;20.80;91.90;;;;;;5021191;28;20040;-82
2021/07/28 00:06:58;;;;;;;6.85;4.55;;;20.70;92.00;;;;;;5034851;28;20057;-82
2021/07/28 00:09:24;;;;;;;6.35;4.47;;;20.70;92.30;;;;;;5034196;28;20065;-82
2021/07/28 00:11:50;;;;;;;7.03;4.32;;;20.70;92.30;;;;;;5033521;28;20538;-82
2021/07/28 00:14:16;;;;;;;8.27;4.30;;;20.60;92.60;;;;;;5033696;28;20036;-82
2021/07/28 00:16:42;;;;;;;6.78;4.35;;;20.60;92.50;;;;;;5034807;28;20069;-82
2021/07/28 00:19:18;;;;;;;6.63;4.78;;;20.60;92.60;;;;;;5033562;28;20068;-82
2021/07/28 00:24:31;;;;;;;7.22;4.20;;;20.60;92.70;;;;;;5034983;28;20095;-82
2021/07/28 00:26:59;;;;;;;6.05;4.45;;;20.60;92.90;;;;;;5034329;28;20033;-82
2021/07/28 00:29:25;;;;;;;7.57;4.50;;;20.50;93.20;;;;;;5033753;28;20052;-82
2021/07/28 00:31:51;;;;;;;8.85;4.63;;;20.50;93.30;;;;;;5020150;28;20018;-82
2021/07/28 00:34:17;;;;;;;7.45;4.63;;;20.40;93.30;;;;;;5013895;28;20084;-81
2021/07/28 00:36:42;;;;;;;8.20;5.40;;;20.40;93.20;;;;;;5014773;28;20042;-81
2021/07/28 00:39:08;;;;;;;6.65;4.90;;;20.50;93.30;;;;;;5013903;28;20040;-82
2021/07/28 00:41:33;;;;;;;7.47;4.70;;;20.40;93.30;;;;;;5014081;28;20026;-82
2021/07/28 00:43:59;;;;;;;8.60;4.80;;;20.40;93.30;;;;;;5013140;28;20018;-81
2021/07/28 00:46:25;;;;;;;7.38;5.10;;;20.40;93.40;;;;;;5013435;28;20120;-81
2021/07/28 00:48:51;;;;;;;8.75;5.40;;;20.40;93.50;;;;;;5013278;28;20029;-81
2021/07/28 00:51:17;;;;;;;8.02;5.63;;;20.40;93.60;;;;;;5013859;28;20025;-81
2021/07/28 00:53:42;;;;;;;8.48;5.50;;;20.40;93.60;;;;;;5013568;28;20403;-81
2021/07/28 00:56:10;;;;;;;7.13;5.05;;;20.40;93.70;;;;;;5013013;28;20085;-81
2021/07/28 00:58:36;;;;;;;7.90;5.55;;;20.30;93.70;;;;;;5013468;28;20030;-81
2021/07/28 01:01:02;;;;;;;8.77;5.22;;;20.30;93.90;;;;;;5012858;28;20033;-81
2021/07/28 01:03:28;;;;;;;6.53;5.03;;;20.20;93.90;;;;;;5013067;28;20398;-81
2021/07/28 01:05:57;;;;;;;7.68;4.80;;;20.10;93.70;;;;;;5012958;28;20454;-81
2021/07/28 01:08:23;;;;;;;10.30;5.03;;;20.10;93.70;;;;;;5013323;28;20030;-81
2021/07/28 01:10:49;;;;;;;9.88;4.75;;;20.00;93.70;;;;;;5013447;28;20036;-80
2021/07/28 01:13:16;;;;;;;10.15;4.85;;;20.00;93.60;;;;;;5012414;28;20109;-79
2021/07/28 01:15:43;;;;;;;6.50;4.38;;;20.00;93.60;;;;;;5014144;28;20030;-81
2021/07/28 01:18:13;;;;;;;7.55;4.82;;;19.90;93.50;;;;;;5012603;28;20072;-81
2021/07/28 01:20:44;;;;;;;7.37;4.80;;;19.90;93.50;;;;;;5013011;28;20429;-81
2021/07/28 01:23:23;;;;;;;6.40;4.43;;;19.80;93.50;;;;;;5013626;28;20247;-81
2021/07/28 01:25:51;;;;;;;5.60;4.30;;;19.80;93.50;;;;;;5012551;28;20041;-80
2021/07/28 01:28:21;;;;;;;7.32;4.90;;;19.80;93.50;;;;;;5013030;28;20021;-81
2021/07/28 01:31:06;;;;;;;11.38;5.00;;;19.70;93.40;;;;;;5013681;28;20026;-81
2021/07/28 01:33:37;;;;;;;10.27;4.57;;;19.70;93.50;;;;;;5014211;28;20076;-81
2021/07/28 01:36:05;;;;;;;9.02;4.20;;;19.70;93.50;;;;;;5013501;28;20064;-82
2021/07/28 01:38:31;;;;;;;7.07;4.72;;;19.60;93.30;;;;;;5014168;28;20063;-81
2021/07/28 01:40:59;;;;;;;8.52;4.53;;;19.60;93.40;;;;;;5013508;28;20471;-81
2021/07/28 01:43:27;;;;;;;6.40;4.65;;;19.60;93.30;;;;;;5014282;28;20033;-81
2021/07/28 01:45:53;;;;;;;5.97;4.53;;;19.60;93.50;;;;;;5013432;28;20092;-81
2021/07/28 01:48:18;;;;;;;7.30;4.50;;;19.50;93.30;;;;;;5013693;28;20026;-80
2021/07/28 01:50:45;;;;;;;9.40;4.70;;;19.50;93.30;;;;;;5012547;28;20407;-79
2021/07/28 01:53:11;;;;;;;5.88;4.10;;;19.40;93.40;;;;;;5011907;28;20030;-80
2021/07/28 01:55:37;;;;;;;6.93;4.32;;;19.40;93.30;;;;;;5012347;28;20030;-80
2021/07/28 01:58:02;;;;;;;9.32;4.50;;;19.40;93.40;;;;;;5013130;28;20498;-80
2021/07/28 02:00:28;;;;;;;6.38;4.20;;;19.30;93.40;;;;;;5012458;28;20026;-80
2021/07/28 02:03:02;;;;;;;7.13;4.72;;;19.40;93.40;;;;;;5011543;28;20134;-80
2021/07/28 02:05:28;;;;;;;8.18;4.28;;;19.40;93.50;;;;;;5013527;28;20121;-80
2021/07/28 02:07:54;;;;;;;7.60;5.25;;;19.30;93.50;;;;;;5028500;28;20112;-80
2021/07/28 02:10:19;;;;;;;8.90;4.63;;;19.30;93.50;;;;;;5013716;28;20446;-82
2021/07/28 02:12:45;;;;;;;9.05;4.75;;;19.30;93.60;;;;;;5012636;28;20034;-82
2021/07/28 02:15:10;;;;;;;7.60;4.85;;;19.30;93.60;;;;;;5028438;28;20053;-81
2021/07/28 02:17:36;;;;;;;7.88;5.00;;;19.20;93.60;;;;;;5013646;28;20030;-82
2021/07/28 02:20:02;;;;;;;8.07;4.75;;;19.30;93.70;;;;;;5012037;28;20034;-82
2021/07/28 02:22:28;;;;;;;9.10;5.22;;;19.20;93.70;;;;;;5012625;28;20483;-83
2021/07/28 02:24:53;;;;;;;8.10;5.20;;;19.20;93.80;;;;;;5014898;28;20038;-82
2021/07/28 02:27:19;;;;;;;8.45;4.90;;;19.20;93.90;;;;;;5017463;28;20509;-82
2021/07/28 02:29:44;;;;;;;7.90;5.28;;;19.20;93.90;;;;;;5017267;28;20034;-81
2021/07/28 02:32:10;;;;;;;7.20;4.80;;;19.20;93.80;;;;;;5015579;28;20169;-81
2021/07/28 02:34:36;;;;;;;7.63;4.75;;;19.20;93.80;;;;;;5015944;28;20034;-82
2021/07/28 02:37:01;;;;;;;11.00;5.00;;;19.20;93.70;;;;;;5016500;28;20042;-81
2021/07/28 02:39:27;;;;;;;10.63;4.82;;;19.20;93.70;;;;;;5016971;28;20100;-81
2021/07/28 02:41:52;;;;;;;8.43;5.07;;;19.20;93.60;;;;;;5016375;28;20060;-81
2021/07/28 02:44:18;;;;;;;7.63;5.05;;;19.20;93.60;;;;;;5017122;28;20069;-81
2021/07/28 02:46:44;;;;;;;9.30;5.20;;;19.10;93.60;;;;;;5015944;28;20390;-82
2021/07/28 02:49:09;;;;;;;7.38;5.05;;;19.10;93.60;;;;;;5016492;28;20084;-82
2021/07/28 02:51:35;;;;;;;7.32;4.93;;;19.00;93.50;;;;;;5015735;28;20022;-81
2021/07/28 02:54:01;;;;;;;8.32;4.80;;;19.00;93.60;;;;;;5016023;28;20030;-81
2021/07/28 02:56:27;;;;;;;7.53;4.68;;;19.00;93.60;;;;;;5015273;28;20459;-81
2021/07/28 02:58:53;;;;;;;8.82;5.28;;;18.90;93.60;;;;;;5016044;28;20061;-81
2021/07/28 03:01:18;;;;;;;6.57;4.13;;;19.00;93.80;;;;;;5015021;28;20467;-82
2021/07/28 03:03:44;;;;;;;8.75;4.50;;;18.90;93.60;;;;;;5015370;28;20030;-81
2021/07/28 03:06:10;;;;;;;7.47;4.75;;;18.90;93.60;;;;;;5016135;28;20256;-81
2021/07/28 03:08:35;;;;;;;6.50;4.28;;;18.90;93.50;;;;;;5015535;28;20032;-81
2021/07/28 03:11:01;;;;;;;8.73;5.10;;;18.90;93.50;;;;;;5014976;28;20029;-81
2021/07/28 03:13:26;;;;;;;8.55;5.10;;;18.90;93.60;;;;;;5016671;28;20115;-81
2021/07/28 03:15:52;;;;;;;7.22;5.00;;;18.80;93.50;;;;;;5015101;28;20037;-82
2021/07/28 03:18:18;;;;;;;9.50;4.65;;;18.80;93.60;;;;;;5015313;28;20026;-80
2021/07/28 03:20:44;;;;;;;6.90;5.00;;;18.80;93.70;;;;;;5016070;28;20033;-81
2021/07/28 03:23:10;;;;;;;9.10;5.13;;;18.80;93.70;;;;;;5014767;28;20025;-82
2021/07/28 03:25:35;;;;;;;9.02;4.65;;;18.80;93.70;;;;;;5015392;28;20176;-81
2021/07/28 03:28:01;;;;;;;7.95;4.82;;;18.80;93.70;;;;;;5014660;28;20028;-81
2021/07/28 03:30:26;;;;;;;8.30;4.78;;;18.80;93.70;;;;;;5015153;28;20109;-81
2021/07/28 03:32:52;;;;;;;9.75;5.10;;;18.80;93.70;;;;;;5014097;28;20037;-80
2021/07/28 03:35:18;;;;;;;13.00;5.13;;;18.70;93.80;;;;;;5015052;28;20069;-81
2021/07/28 03:37:43;;;;;;;7.25;5.20;;;18.70;93.90;;;;;;5014644;28;20453;-81
2021/07/28 03:40:10;;;;;;;6.95;4.72;;;18.70;93.90;;;;;;5014495;28;20118;-81
2021/07/28 03:42:36;;;;;;;7.35;4.80;;;18.70;93.90;;;;;;5015846;28;20025;-80
2021/07/28 03:45:02;;;;;;;8.05;5.03;;;18.70;93.90;;;;;;5014299;28;20399;-81
2021/07/28 03:47:28;;;;;;;8.63;5.05;;;18.70;94.00;;;;;;5015998;28;20112;-81
2021/07/28 03:49:53;;;;;;;7.80;4.93;;;18.60;94.20;;;;;;5014299;28;20060;-80
2021/07/28 03:52:19;;;;;;;9.77;5.15;;;18.60;94.10;;;;;;5014895;28;20080;-81
2021/07/28 03:54:45;;;;;;;6.72;4.80;;;18.60;94.10;;;;;;5015513;28;20026;-81
2021/07/28 03:57:12;;;;;;;9.05;4.90;;;18.60;94.20;;;;;;5014140;28;20030;-81
2021/07/28 03:59:38;;;;;;;7.13;4.75;;;18.60;94.10;;;;;;5014677;28;20471;-82
2021/07/28 04:02:05;;;;;;;9.57;5.95;;;18.60;94.10;;;;;;5013320;28;20054;-81
2021/07/28 04:04:31;;;;;;;8.13;5.55;;;18.50;94.30;;;;;;5014462;28;20034;-81
2021/07/28 04:06:56;;;;;;;11.27;5.57;;;18.30;94.60;;;;;;5013966;28;20026;-81
2021/07/28 04:09:22;;;;;;;9.10;5.13;;;18.30;94.80;;;;;;5014763;28;20033;-81
2021/07/28 04:11:47;;;;;;;7.25;5.15;;;18.40;94.80;;;;;;5014351;28;20030;-82
2021/07/28 04:14:13;;;;;;;8.57;5.55;;;18.30;94.80;;;;;;5013898;28;20022;-82
2021/07/28 04:16:39;;;;;;;8.02;5.13;;;18.40;94.80;;;;;;5015492;28;20053;-81
2021/07/28 04:19:04;;;;;;;9.10;5.47;;;18.30;94.70;;;;;;5013636;28;20467;-81
2021/07/28 04:21:30;;;;;;;8.80;6.05;;;18.30;94.80;;;;;;5013959;28;20026;-81
2021/07/28 04:23:56;;;;;;;9.50;5.43;;;18.30;94.70;;;;;;5013820;28;20032;-81
2021/07/28 04:26:21;;;;;;;11.07;5.50;;;18.40;94.80;;;;;;5015167;28;20025;-81
2021/07/28 04:28:47;;;;;;;9.95;5.47;;;18.40;94.70;;;;;;5013948;28;20066;-82
2021/07/28 04:31:13;;;;;;;8.15;5.22;;;18.40;94.70;;;;;;5013607;28;20492;-81
2021/07/28 04:33:38;;;;;;;12.50;6.05;;;18.50;94.80;;;;;;5013883;28;20102;-81
2021/07/28 04:36:04;;;;;;;9.05;5.80;;;18.50;94.80;;;;;;5013332;28;20364;-81
2021/07/28 04:38:29;;;;;;;6.85;5.32;;;18.60;94.70;;;;;;5013828;28;20036;-81
2021/07/28 04:40:55;;;;;;;8.90;5.95;;;18.60;94.60;;;;;;5014236;28;20022;-81
2021/07/28 04:43:21;;;;;;;9.35;5.57;;;18.70;94.60;;;;;;5013637;28;20026;-81
2021/07/28 04:45:46;;;;;;;10.45;6.53;;;18.80;94.50;;;;;;5013457;28;20025;-81
2021/07/28 04:48:12;;;;;;;10.10;6.72;;;18.80;94.60;;;;;;5014202;28;20032;-81
2021/07/28 04:50:38;;;;;;;10.77;6.50;;;18.90;94.60;;;;;;5013452;28;20068;-81
2021/07/28 04:53:04;;;;;;;12.00;6.70;;;19.00;94.60;;;;;;5012958;28;20463;-81
2021/07/28 04:55:29;;;;;;;13.82;6.70;;;18.90;94.60;;;;;;5013243;28;20054;-81
2021/07/28 04:57:56;;;;;;;11.32;6.88;;;19.00;94.60;;;;;;5013912;28;20038;-81
2021/07/28 05:00:21;;;;;;;10.20;7.00;;;19.00;94.60;;;;;;5014012;28;20057;-82
2021/07/28 05:02:47;;;;;;;11.60;6.93;;;19.00;94.60;;;;;;5012510;28;20085;-80
2021/07/28 05:05:13;;;;;;;11.05;6.25;;;19.00;94.60;;;;;;5013766;28;20037;-80
2021/07/28 05:07:38;;;;;;;9.90;6.30;;;19.00;94.60;;;;;;5013273;28;20026;-81
2021/07/28 05:10:04;;;;;;;11.68;6.60;;;19.00;94.70;;;;;;5012890;28;20053;-81
2021/07/28 05:12:30;;;;;;;9.75;6.57;;;19.00;94.70;;;;;;5013395;28;20120;-81
2021/07/28 05:14:57;;;;;;;8.80;6.35;;;19.00;94.60;;;;;;5012657;28;20180;-81
2021/07/28 05:17:24;;;;;;;14.70;6.93;;;19.00;94.70;;;;;;5014339;28;20033;-81
2021/07/28 05:19:51;;;;;;;9.05;6.18;;;19.10;94.80;;;;;;5014317;28;20053;-81
2021/07/28 05:22:16;;;;;;;10.10;6.18;;;19.10;94.80;;;;;;5012341;28;20482;-81
2021/07/28 05:24:42;;;;;;;8.77;6.03;;;19.10;94.70;;;;;;5014192;28;20084;-82
2021/07/28 05:27:08;;;;;;;8.38;5.88;;;19.10;94.60;;;;;;5012333;28;20455;-81
2021/07/28 05:29:33;;;;;;;10.25;6.75;;;19.10;94.60;;;;;;5013364;28;20471;-82
2021/07/28 05:31:59;;;;;;;9.10;6.15;;;19.10;94.60;;;;;;5012136;28;20033;-80
2021/07/28 05:34:24;;;;;;;9.02;5.88;;;19.10;94.60;;;;;;5014022;28;20069;-81
2021/07/28 05:36:52;;;;;;;10.80;6.05;;;19.10;94.50;;;;;;5012910;28;20061;-81
2021/07/28 05:39:17;;;;;;;10.20;5.72;;;19.10;94.50;;;;;;5012285;28;20026;-81
2021/07/28 05:41:43;;;;;;;10.18;5.90;;;19.00;94.50;;;;;;5013352;28;20030;-81
2021/07/28 05:44:09;;;;;;;12.23;5.63;;;19.10;94.50;;;;;;5013396;28;20030;-81
2021/07/28 05:46:37;;;;;;;9.30;5.35;;;19.10;94.50;;;;;;5012940;28;20026;-81
2021/07/28 05:49:03;;;;;;;9.27;5.50;;;19.10;94.50;;;;;;5012107;28;20479;-81
2021/07/28 05:51:29;;;;;;;10.38;5.35;;;19.10;94.50;;;;;;5013660;28;20030;-82
2021/07/28 05:53:55;;;;;;;9.13;5.95;;;19.10;94.40;;;;;;5013856;28;20026;-81
2021/07/28 05:56:24;;;;;;;8.98;6.32;;;19.10;94.50;;;;;;5011871;28;20033;-82
2021/07/28 05:58:50;;;;;;;10.32;5.80;;;19.20;94.50;;;;;;5012455;28;20034;-82
2021/07/28 06:01:15;;;;;;;12.20;7.28;;;19.20;94.40;;;;;;5016545;28;20892;-81
2021/07/28 06:03:41;;;;;;;14.23;8.60;;;19.20;94.30;;;;;;5017116;28;20125;-82
2021/07/28 06:06:07;;;;;;;15.13;8.82;;;19.20;94.40;;;;;;5015606;28;20038;-81
2021/07/28 06:08:32;;;;;;;14.57;8.10;;;19.20;94.30;;;;;;5016298;28;20025;-82
2021/07/28 06:10:58;;;;;;;19.15;9.85;;;19.10;94.40;;;;;;5015701;28;20053;-82
2021/07/28 06:13:23;;;;;;;15.57;10.05;;;19.10;94.40;;;;;;5017147;28;20068;-82
2021/07/28 06:15:50;;;;;;;16.35;9.48;;;19.20;94.50;;;;;;5016021;28;20030;-81
2021/07/28 06:18:16;;;;;;;12.57;8.85;;;19.10;94.40;;;;;;5014533;28;20033;-88
2021/07/28 06:20:42;;;;;;;13.32;7.95;;;19.20;94.50;;;;;;5015424;28;20029;-88
2021/07/28 06:23:08;;;;;;;10.70;7.13;;;19.20;94.40;;;;;;5016132;28;20026;-88
2021/07/28 06:25:33;;;;;;;10.95;6.07;;;19.20;94.30;;;;;;5015961;28;20034;-89
2021/07/28 06:28:08;;;;;;;10.30;5.88;;;19.30;94.20;;;;;;5016326;28;20386;-89
2021/07/28 06:30:33;;;;;;;10.20;5.68;;;19.30;94.20;;;;;;5017153;28;20084;-90
2021/07/28 06:32:59;;;;;;;7.70;5.03;;;19.30;94.00;;;;;;5015891;28;20026;-88
2021/07/28 06:35:24;;;;;;;9.30;4.93;;;19.40;93.90;;;;;;5016090;28;20034;-90
2021/07/28 06:37:50;;;;;;;10.00;4.95;;;19.30;93.80;;;;;;5015893;28;20045;-85
2021/07/28 06:40:16;;;;;;;10.18;5.25;;;19.40;93.90;;;;;;5015577;28;20073;-88
2021/07/28 06:42:41;;;;;;;6.65;5.05;;;19.30;93.80;;;;;;5016055;28;20046;-85
2021/07/28 06:45:07;;;;;;;9.65;5.30;;;19.40;93.90;;;;;;5015299;28;20025;-88
2021/07/28 06:47:33;;;;;;;9.35;5.05;;;19.40;94.00;;;;;;5015988;28;20022;-94
2021/07/28 06:49:58;;;;;;;8.23;5.38;;;19.40;93.80;;;;;;5015658;28;20450;-86
2021/07/28 06:52:24;;;;;;;9.52;5.47;;;19.40;93.80;;;;;;5015913;28;20030;-86
2021/07/28 06:54:49;;;;;;;8.80;5.43;;;19.40;93.90;;;;;;5016450;28;20030;-86
2021/07/28 06:57:15;;;;;;;8.90;5.78;;;19.30;93.80;;;;;;5015353;28;20050;-86
2021/07/28 06:59:41;;;;;;;9.98;5.35;;;19.30;94.00;;;;;;5015496;28;20033;-85
2021/07/28 07:02:06;;;;;;;8.68;4.85;;;19.30;94.00;;;;;;5014145;28;20065;-85
2021/07/28 07:04:32;;;;;;;8.80;5.07;;;19.30;94.00;;;;;;5016340;28;20026;-84
2021/07/28 07:06:58;;;;;;;8.57;5.40;;;19.40;93.80;;;;;;5016145;28;20111;-84
2021/07/28 07:09:23;;;;;;;8.73;5.13;;;19.40;93.80;;;;;;5015618;28;20525;-87
2021/07/28 07:11:49;;;;;;;7.32;4.45;;;19.50;93.80;;;;;;5014188;28;20368;-86
2021/07/28 07:14:15;;;;;;;8.18;4.65;;;19.50;93.70;;;;;;5014974;28;20065;-87
2021/07/28 07:16:40;;;;;;;9.27;4.85;;;19.50;93.60;;;;;;5015249;28;20050;-87
2021/07/28 07:19:06;;;;;;;8.65;4.85;;;19.60;93.50;;;;;;5015875;28;20034;-88
2021/07/28 07:21:31;;;;;;;9.55;4.78;;;19.60;93.50;;;;;;5015299;28;20026;-90
2021/07/28 07:23:57;;;;;;;7.40;4.75;;;19.60;93.40;;;;;;5015553;28;20076;-91
2021/07/28 07:26:23;;;;;;;7.80;4.53;;;19.60;93.30;;;;;;5015649;28;20084;-90
2021/07/28 07:28:48;;;;;;;6.53;4.85;;;19.60;93.30;;;;;;5015134;28;20395;-87
2021/07/28 07:31:14;;;;;;;7.40;4.80;;;19.70;93.40;;;;;;5015512;28;20099;-85
2021/07/28 07:33:40;;;;;;;7.95;4.95;;;19.70;93.30;;;;;;5014529;28;20057;-86
2021/07/28 07:36:07;;;;;;;7.65;4.53;;;19.60;93.30;;;;;;5014074;28;20045;-85
2021/07/28 07:38:33;;;;;;;9.65;4.63;;;19.70;93.10;;;;;;5015353;28;20026;-86
2021/07/28 07:40:59;;;;;;;6.72;4.35;;;19.80;93.00;;;;;;5014480;28;20029;-86
2021/07/28 07:43:25;;;;;;;8.65;4.65;;;19.80;92.60;;;;;;5014400;28;20490;-85
2021/07/28 07:45:55;;;;;;;10.85;4.80;;;19.90;92.70;;;;;;5014607;28;20135;-87
2021/07/28 07:48:20;;;;;;;7.15;4.43;;;19.90;92.30;;;;;;5013620;28;20463;-87
2021/07/28 07:50:46;;;;;;;8.10;4.25;;;20.00;92.70;;;;;;5013213;28;20033;-92
2021/07/28 07:53:12;;;;;;;6.30;4.10;;;20.00;92.50;;;;;;5013235;28;20026;-91
2021/07/28 07:55:38;;;;;;;7.32;3.70;;;20.00;91.90;;;;;;5012599;28;20037;-90
2021/07/28 07:58:04;;;;;;;5.75;4.53;;;20.10;91.80;;;;;;5012571;28;20033;-91
2021/07/28 08:00:30;;;;;;;7.22;4.35;;;20.10;91.60;;;;;;5013634;28;20025;-86
2021/07/28 08:02:56;;;;;;;6.72;4.07;;;20.20;91.80;;;;;;5009708;28;20054;-94
2021/07/28 08:05:21;;;;;;;10.45;4.60;;;20.30;91.80;;;;;;5013926;28;20052;-86
2021/07/28 08:07:47;;;;;;;7.05;3.75;;;20.30;91.70;;;;;;5015515;28;20022;-86
2021/07/28 08:10:14;;;;;;;8.18;4.32;;;20.30;91.20;;;;;;5009176;28;20026;-84
2021/07/28 08:12:39;;;;;;;7.32;4.22;;;20.30;91.10;;;;;;5004391;28;20037;-84
2021/07/28 08:15:05;;;;;;;6.82;4.38;;;20.30;91.40;;;;;;5014854;28;20033;-88
2021/07/28 08:17:31;;;;;;;8.85;4.32;;;20.40;91.20;;;;;;5014631;28;20030;-87
2021/07/28 08:19:57;;;;;;;9.40;4.25;;;20.40;91.10;;;;;;5013974;28;20076;-80
2021/07/28 08:22:23;;;;;;;7.38;4.30;;;20.50;91.20;;;;;;5012740;28;20038;-86
2021/07/28 08:24:49;;;;;;;6.05;4.43;;;20.50;91.40;;;;;;5002461;28;20038;-86
2021/07/28 08:27:15;;;;;;;6.30;4.07;;;20.60;91.10;;;;;;5008660;28;20029;-87
2021/07/28 08:29:40;;;;;;;9.60;4.15;;;20.60;90.70;;;;;;5011918;28;20026;-86
2021/07/28 08:32:06;;;;;;;5.30;3.70;;;20.60;90.60;;;;;;5013236;28;20474;-84
2021/07/28 08:34:32;;;;;;;5.55;4.18;;;20.60;90.30;;;;;;5011967;28;20034;-86
2021/07/28 08:36:58;;;;;;;5.78;3.80;;;20.60;90.30;;;;;;5011875;28;20061;-85
2021/07/28 08:39:24;;;;;;;7.57;3.75;;;20.70;90.60;;;;;;5010373;28;20459;-86
2021/07/28 08:41:51;;;;;;;7.07;4.07;;;20.80;90.30;;;;;;5030055;28;20026;-86
2021/07/28 08:44:19;;;;;;;6.72;3.92;;;20.80;90.30;;;;;;5000250;28;20030;-86
2021/07/28 08:46:45;;;;;;;8.50;3.67;;;20.80;90.30;;;;;;5002496;28;20038;-85
2021/07/28 08:49:14;;;;;;;6.90;3.92;;;20.80;90.30;;;;;;5006641;28;20083;-85
2021/07/28 08:51:43;;;;;;;6.53;3.42;;;20.90;90.20;;;;;;5011090;28;20105;-89
2021/07/28 08:54:08;;;;;;;7.55;3.47;;;20.90;90.20;;;;;;5009119;28;20037;-84
2021/07/28 08:56:39;;;;;;;8.73;4.28;;;21.00;89.20;;;;;;5013523;28;20030;-85
2021/07/28 08:59:05;;;;;;;7.30;3.95;;;21.00;88.50;;;;;;5012750;28;20069;-89
2021/07/28 09:01:30;;;;;;;10.55;3.85;;;20.90;88.60;;;;;;5012993;28;20061;-87
2021/07/28 09:03:56;;;;;;;5.45;3.72;;;20.90;88.60;;;;;;5013782;28;20044;-89
2021/07/28 09:06:29;;;;;;;6.70;4.00;;;21.00;88.90;;;;;;5006320;28;20050;-86
2021/07/28 09:09:00;;;;;;;4.70;3.53;;;21.10;89.10;;;;;;5005368;28;20030;-85
2021/07/28 09:11:26;;;;;;;5.65;3.80;;;21.10;88.40;;;;;;5013521;28;20077;-88
2021/07/28 09:13:57;;;;;;;5.43;3.75;;;21.10;88.40;;;;;;5014363;28;20168;-86
2021/07/28 09:16:23;;;;;;;5.30;3.60;;;21.10;88.40;;;;;;5013273;28;20110;-85
2021/07/28 09:18:52;;;;;;;5.63;3.47;;;21.10;88.50;;;;;;5008263;28;20514;-84
2021/07/28 09:21:21;;;;;;;6.53;3.63;;;21.00;88.70;;;;;;5013139;28;20045;-89
2021/07/28 09:23:52;;;;;;;6.22;3.40;;;21.20;89.00;;;;;;5014008;28;20034;-86
2021/07/28 09:26:39;;;;;;;5.82;3.47;;;21.30;88.10;;;;;;5012451;28;20033;-86
2021/07/28 09:29:16;;;;;;;7.30;3.80;;;21.30;88.20;;;;;;5012529;28;20042;-89
2021/07/28 09:31:53;;;;;;;5.68;3.28;;;21.40;88.60;;;;;;5010420;28;20030;-82
2021/07/28 09:34:21;;;;;;;4.65;3.17;;;21.50;87.60;;;;;;5011224;28;20041;-82
2021/07/28 09:36:55;;;;;;;4.82;3.20;;;21.60;86.00;;;;;;5012774;28;20042;-91
2021/07/28 09:39:27;;;;;;;5.72;3.42;;;21.50;85.10;;;;;;5002755;28;20345;-94
2021/07/28 09:41:54;;;;;;;5.63;3.17;;;21.50;84.30;;;;;;5003995;28;20026;-90
2021/07/28 09:44:28;;;;;;;6.47;3.50;;;21.60;84.50;;;;;;5012040;28;20113;-87
2021/07/28 09:47:10;;;;;;;4.20;3.08;;;21.60;84.20;;;;;;5013393;28;20069;-82
2021/07/28 09:49:38;;;;;;;4.40;3.05;;;21.60;83.40;;;;;;5015343;28;20022;-93
2021/07/28 09:52:34;;;;;;;5.28;3.30;;;21.60;83.70;;;;;;5014973;28;20026;-84
2021/07/28 09:55:21;;;;;;;5.00;3.22;;;21.50;84.70;;;;;;5006820;28;20054;-91
2021/07/28 09:57:53;;;;;;;5.65;3.30;;;21.40;84.50;;;;;;5010075;28;20030;-91
2021/07/28 10:00:19;;;;;;;8.07;3.55;;;21.30;85.20;;;;;;5013497;28;20075;-85
2021/07/28 10:02:46;;;;;;;6.18;3.40;;;21.20;85.40;;;;;;5012560;28;20042;-86
2021/07/28 10:05:12;;;;;;;4.20;3.03;;;21.20;84.90;;;;;;5013018;28;20479;-90
2021/07/28 10:07:40;;;;;;;4.85;3.25;;;21.10;83.60;;;;;;5007356;28;20030;-86
2021/07/28 10:10:10;;;;;;;4.80;3.30;;;21.10;84.70;;;;;;5012846;28;20030;-88
2021/07/28 10:12:38;;;;;;;4.38;3.10;;;21.20;84.60;;;;;;5014055;28;20022;-83
2021/07/28 10:15:05;;;;;;;6.47;3.20;;;21.20;85.50;;;;;;5012590;28;20030;-88
2021/07/28 10:17:41;;;;;;;5.72;3.15;;;21.30;84.70;;;;;;5012437;28;20022;-88
2021/07/28 10:20:12;;;;;;;6.93;3.65;;;21.40;84.70;;;;;;5010379;28;20049;-85
2021/07/28 10:22:40;;;;;;;6.20;3.50;;;21.40;83.70;;;;;;5010875;28;20395;-86
2021/07/28 10:25:17;;;;;;;4.65;3.20;;;21.50;84.30;;;;;;5006277;28;20030;-90
2021/07/28 10:27:45;;;;;;;4.15;2.95;;;21.60;82.70;;;;;;5008071;28;20072;-88
2021/07/28 10:30:14;;;;;;;4.50;3.15;;;21.70;82.20;;;;;;5011688;28;20030;-86
2021/07/28 10:32:41;;;;;;;5.07;3.30;;;21.70;81.70;;;;;;5011960;28;20026;-85
2021/07/28 10:35:16;;;;;;;5.25;3.42;;;21.80;81.10;;;;;;5011881;28;20076;-88
2021/07/28 10:37:42;;;;;;;6.32;2.88;;;21.90;81.70;;;;;;5012463;28;20030;-89
2021/07/28 10:40:31;;;;;;;6.55;3.67;;;22.00;79.90;;;;;;5012721;28;20026;-87
2021/07/28 10:42:57;;;;;;;5.05;3.03;;;22.10;79.20;;;;;;4992890;28;20034;-86
2021/07/28 10:45:24;;;;;;;3.67;2.83;;;22.30;79.50;;;;;;5009442;28;20055;-90
2021/07/28 10:47:59;;;;;;;6.60;3.67;;;22.40;78.50;;;;;;5015703;28;20022;-91
2021/07/28 10:50:30;;;;;;;5.43;3.38;;;22.40;77.90;;;;;;5015559;28;20252;-88
2021/07/28 10:52:57;;;;;;;3.28;2.75;;;22.40;79.40;;;;;;5012824;28;20026;-89
2021/07/28 10:55:28;;;;;;;4.22;3.03;;;22.40;78.50;;;;;;4995875;28;20034;-80
2021/07/28 10:57:54;;;;;;;7.57;3.35;;;22.50;78.30;;;;;;5008783;28;20022;-89
2021/07/28 11:00:35;;;;;;;4.93;2.92;;;22.50;76.70;;;;;;5015398;28;20029;-88
2021/07/28 11:03:01;;;;;;;4.30;3.10;;;22.60;76.00;;;;;;5015091;28;20050;-90
2021/07/28 11:05:31;;;;;;;4.05;3.05;;;22.70;76.20;;;;;;5015117;28;20053;-91
2021/07/28 11:08:03;;;;;;;5.43;2.72;;;22.80;76.70;;;;;;5015735;28;20033;-86
2021/07/28 11:10:30;;;;;;;3.85;2.88;;;22.90;76.20;;;;;;5015854;28;20061;-95
2021/07/28 11:12:57;;;;;;;8.35;3.28;;;22.90;76.10;;;;;;5016090;28;20037;-90
2021/07/28 11:15:23;;;;;;;4.28;2.78;;;22.70;76.10;;;;;;5015780;28;20042;-87
2021/07/28 11:17:53;;;;;;;6.07;2.83;;;22.70;77.10;;;;;;5015321;28;20021;-86
2021/07/28 11:20:37;;;;;;;4.50;3.08;;;22.60;76.40;;;;;;5016423;28;20033;-85
2021/07/28 11:23:29;;;;;;;7.13;3.30;;;22.60;76.40;;;;;;5015480;28;20056;-86
2021/07/28 11:26:00;;;;;;;5.13;3.17;;;22.70;74.60;;;;;;5016414;28;20034;-85
2021/07/28 11:28:26;;;;;;;5.40;2.78;;;22.70;74.20;;;;;;5015625;28;20077;-85
2021/07/28 11:31:00;;;;;;;3.38;2.75;;;22.70;74.30;;;;;;5015294;28;20483;-85
2021/07/28 11:33:29;;;;;;;5.57;2.90;;;22.70;74.00;;;;;;5014924;28;20030;-85
2021/07/28 11:35:56;;;;;;;5.40;3.17;;;22.80;73.90;;;;;;5015047;28;20494;-85
2021/07/28 11:38:23;;;;;;;4.32;3.00;;;22.80;73.70;;;;;;5014253;28;20026;-89
2021/07/28 11:40:56;;;;;;;3.78;2.97;;;22.90;73.30;;;;;;4996227;28;20034;-86
2021/07/28 11:43:26;;;;;;;3.78;3.17;;;22.90;73.40;;;;;;4995168;28;20030;-88
2021/07/28 11:45:53;;;;;;;4.25;3.10;;;22.80;74.40;;;;;;4995540;28;20431;-83
2021/07/28 11:48:33;;;;;;;4.43;2.90;;;22.80;74.90;;;;;;5013323;28;20021;-83
2021/07/28 11:51:03;;;;;;;4.43;3.05;;;23.00;75.60;;;;;;5014793;28;20084;-85
2021/07/28 11:53:30;;;;;;;3.87;2.80;;;23.20;71.90;;;;;;5014522;28;20459;-85
2021/07/28 11:56:13;;;;;;;3.95;2.90;;;23.40;72.20;;;;;;5003509;28;20034;-86
2021/07/28 11:58:43;;;;;;;5.78;3.20;;;23.40;72.10;;;;;;4995790;28;20026;-85
2021/07/28 12:01:35;;;;;;;3.90;2.73;;;23.40;72.60;;;;;;5014176;28;20026;-82
2021/07/28 12:04:05;;;;;;;4.50;2.67;;;23.70;71.70;;;;;;5013816;28;20057;-82
2021/07/28 12:06:37;;;;;;;5.25;2.90;;;23.80;69.80;;;;;;5014265;28;20038;-83
2021/07/28 12:09:18;;;;;;;4.05;2.80;;;23.70;68.20;;;;;;5014246;28;20033;-90
2021/07/28 12:11:48;;;;;;;3.95;2.40;;;23.60;68.60;;;;;;5015213;28;20109;-86
2021/07/28 12:14:36;;;;;;;3.78;2.60;;;23.60;68.90;;;;;;5013964;28;20080;-87
2021/07/28 12:17:23;;;;;;;4.00;2.58;;;23.80;69.90;;;;;;4996717;28;20038;-84
2021/07/28 12:19:56;;;;;;;3.42;2.70;;;24.00;68.60;;;;;;5014253;28;20121;-81
2021/07/28 12:22:35;;;;;;;3.90;2.40;;;24.30;69.30;;;;;;5013265;28;20026;-88
2021/07/28 12:25:20;;;;;;;3.92;2.55;;;24.50;68.50;;;;;;5014969;28;20030;-84
2021/07/28 12:28:12;;;;;;;5.47;2.53;;;24.70;64.50;;;;;;5003201;28;20035;-90
2021/07/28 12:30:39;;;;;;;3.75;2.45;;;24.80;64.50;;;;;;5012147;28;20014;-88
2021/07/28 12:33:16;;;;;;;3.08;2.40;;;25.00;64.00;;;;;;5012211;28;20033;-86
2021/07/28 12:35:53;;;;;;;2.90;2.45;;;25.10;64.10;;;;;;5011814;28;20038;-87
2021/07/28 12:38:21;;;;;;;6.05;2.17;;;25.20;63.80;;;;;;5013377;28;20383;-88
2021/07/28 12:40:58;;;;;;;4.05;2.35;;;25.30;60.80;;;;;;5011525;28;20022;-89
2021/07/28 12:43:28;;;;;;;2.60;2.17;;;25.40;61.90;;;;;;5000543;28;20025;-87
2021/07/28 12:45:58;;;;;;;4.22;2.35;;;25.40;61.20;;;;;;5013065;28;20026;-91
2021/07/28 12:48:25;;;;;;;2.75;2.30;;;25.30;62.00;;;;;;5012685;28;20025;-86
2021/07/28 12:50:51;;;;;;;3.40;2.47;;;25.10;62.60;;;;;;5009678;28;20026;-85
2021/07/28 12:53:17;;;;;;;3.22;2.50;;;24.90;63.30;;;;;;4999353;28;20479;-84